sensor_id;sensor_type;location;lat;lon;timestamp;pressure;altitude;pressure_sealevel;temperature;humidity
75536;BME280;64119;52.070;20.804;2022-12-29T00:01:44;100226.57;;;5.69;74.04
75536;BME280;64119;52.070;20.804;2022-12-29T00:04:13;100229.10;;;5.72;73.94
75536;BME280;64119;52.070;20.804;2022-12-29T00:06:43;100224.30;;;5.74;73.81
75536;BME280;64119;52.070;20.804;2022-12-29T00:09:12;100225.86;;;5.74;73.92
75536;BME280;64119;52.070;20.804;2022-12-29T00:11:40;100215.69;;;5.74;73.87
75536;BME280;64119;52.070;20.804;2022-12-29T00:14:09;100212.42;;;5.75;74.14
75536;BME280;64119;52.070;20.804;2022-12-29T00:16:56;100210.36;;;5.73;73.99
75536;BME280;64119;52.070;20.804;2022-12-29T00:19:24;100210.85;;;5.75;73.99
75536;BME280;64119;52.070;20.804;2022-12-29T00:22:13;100209.80;;;5.77;73.81
75536;BME280;64119;52.070;20.804;2022-12-29T00:25:01;100212.80;;;5.76;73.93
75536;BME280;64119;52.070;20.804;2022-12-29T00:27:29;100215.00;;;5.77;73.92
75536;BME280;64119;52.070;20.804;2022-12-29T00:30:22;100221.52;;;5.78;73.84
75536;BME280;64119;52.070;20.804;2022-12-29T00:36:02;100218.42;;;5.78;73.84
75536;BME280;64119;52.070;20.804;2022-12-29T00:38:34;100219.65;;;5.80;73.90
75536;BME280;64119;52.070;20.804;2022-12-29T00:41:22;100233.00;;;5.79;73.91
75536;BME280;64119;52.070;20.804;2022-12-29T00:44:09;100236.33;;;5.79;73.99
75536;BME280;64119;52.070;20.804;2022-12-29T00:46:39;100225.89;;;5.79;74.21
75536;BME280;64119;52.070;20.804;2022-12-29T00:49:10;100223.36;;;5.81;73.77
75536;BME280;64119;52.070;20.804;2022-12-29T00:52:05;100222.23;;;5.80;73.99
75536;BME280;64119;52.070;20.804;2022-12-29T00:54:38;100225.40;;;5.78;73.90
75536;BME280;64119;52.070;20.804;2022-12-29T00:57:08;100219.88;;;5.77;73.82
75536;BME280;64119;52.070;20.804;2022-12-29T00:59:37;100214.64;;;5.77;73.92
75536;BME280;64119;52.070;20.804;2022-12-29T01:02:05;100215.48;;;5.77;73.92
75536;BME280;64119;52.070;20.804;2022-12-29T01:04:34;100219.80;;;5.75;73.96
75536;BME280;64119;52.070;20.804;2022-12-29T01:07:02;100210.91;;;5.73;74.08
75536;BME280;64119;52.070;20.804;2022-12-29T01:09:30;100207.95;;;5.71;74.15
75536;BME280;64119;52.070;20.804;2022-12-29T01:12:17;100207.05;;;5.70;74.00
75536;BME280;64119;52.070;20.804;2022-12-29T01:15:05;100201.04;;;5.68;73.89
75536;BME280;64119;52.070;20.804;2022-12-29T01:17:34;100201.23;;;5.70;73.95
75536;BME280;64119;52.070;20.804;2022-12-29T01:20:02;100196.96;;;5.67;74.10
75536;BME280;64119;52.070;20.804;2022-12-29T01:22:30;100195.65;;;5.66;74.33
75536;BME280;64119;52.070;20.804;2022-12-29T01:24:58;100192.96;;;5.65;74.24
75536;BME280;64119;52.070;20.804;2022-12-29T01:27:26;100185.73;;;5.64;74.00
75536;BME280;64119;52.070;20.804;2022-12-29T01:29:53;100183.91;;;5.66;73.91
75536;BME280;64119;52.070;20.804;2022-12-29T01:32:21;100178.35;;;5.65;73.97
75536;BME280;64119;52.070;20.804;2022-12-29T01:34:49;100177.60;;;5.64;74.04
75536;BME280;64119;52.070;20.804;2022-12-29T01:37:17;100174.73;;;5.63;73.99
75536;BME280;64119;52.070;20.804;2022-12-29T01:39:45;100169.70;;;5.63;73.87
75536;BME280;64119;52.070;20.804;2022-12-29T01:42:18;100173.38;;;5.63;74.03
75536;BME280;64119;52.070;20.804;2022-12-29T01:44:47;100171.77;;;5.63;73.73
75536;BME280;64119;52.070;20.804;2022-12-29T01:49:58;100165.70;;;5.66;73.64
75536;BME280;64119;52.070;20.804;2022-12-29T01:52:31;100160.63;;;5.65;73.73
75536;BME280;64119;52.070;20.804;2022-12-29T01:55:02;100154.75;;;5.65;73.73
75536;BME280;64119;52.070;20.804;2022-12-29T01:57:37;100145.55;;;5.62;73.92
75536;BME280;64119;52.070;20.804;2022-12-29T02:00:08;100145.48;;;5.63;73.74
75536;BME280;64119;52.070;20.804;2022-12-29T02:02:44;100142.23;;;5.62;73.87
75536;BME280;64119;52.070;20.804;2022-12-29T02:05:29;100136.73;;;5.61;73.81
75536;BME280;64119;52.070;20.804;2022-12-29T02:08:00;100131.92;;;5.60;73.96
75536;BME280;64119;52.070;20.804;2022-12-29T02:10:31;100136.48;;;5.62;73.72
75536;BME280;64119;52.070;20.804;2022-12-29T02:13:00;100144.21;;;5.62;73.67
75536;BME280;64119;52.070;20.804;2022-12-29T02:30:33;100148.41;;;5.55;73.51
75536;BME280;64119;52.070;20.804;2022-12-29T02:39:17;100148.79;;;5.48;73.94
75536;BME280;64119;52.070;20.804;2022-12-29T02:47:27;100156.55;;;5.38;75.10
75536;BME280;64119;52.070;20.804;2022-12-29T02:50:03;100157.91;;;5.31;75.97
75536;BME280;64119;52.070;20.804;2022-12-29T02:52:38;100155.94;;;5.23;76.39
75536;BME280;64119;52.070;20.804;2022-12-29T02:55:06;100151.15;;;5.16;77.08
75536;BME280;64119;52.070;20.804;2022-12-29T02:57:34;100153.32;;;5.08;77.47
75536;BME280;64119;52.070;20.804;2022-12-29T03:00:09;100155.78;;;4.98;78.27
75536;BME280;64119;52.070;20.804;2022-12-29T03:02:56;100152.98;;;4.91;78.74
75536;BME280;64119;52.070;20.804;2022-12-29T03:05:45;100160.63;;;4.82;79.29
75536;BME280;64119;52.070;20.804;2022-12-29T03:11:14;100149.73;;;4.65;80.68
75536;BME280;64119;52.070;20.804;2022-12-29T03:14:29;100147.00;;;4.59;80.58
75536;BME280;64119;52.070;20.804;2022-12-29T03:17:30;100142.14;;;4.54;80.80
75536;BME280;64119;52.070;20.804;2022-12-29T03:20:13;100139.42;;;4.50;81.01
75536;BME280;64119;52.070;20.804;2022-12-29T03:22:44;100136.40;;;4.45;80.51
75536;BME280;64119;52.070;20.804;2022-12-29T03:25:30;100127.19;;;4.41;80.95
75536;BME280;64119;52.070;20.804;2022-12-29T03:28:06;100123.59;;;4.39;80.95
75536;BME280;64119;52.070;20.804;2022-12-29T03:30:40;100111.23;;;4.38;81.16
75536;BME280;64119;52.070;20.804;2022-12-29T03:33:13;100093.46;;;4.35;81.50
75536;BME280;64119;52.070;20.804;2022-12-29T03:35:44;100087.77;;;4.31;81.75
75536;BME280;64119;52.070;20.804;2022-12-29T03:38:24;100103.17;;;4.28;81.99
75536;BME280;64119;52.070;20.804;2022-12-29T03:40:56;100106.66;;;4.25;81.90
75536;BME280;64119;52.070;20.804;2022-12-29T03:43:27;100108.72;;;4.23;82.13
75536;BME280;64119;52.070;20.804;2022-12-29T03:45:55;100103.75;;;4.22;82.08
75536;BME280;64119;52.070;20.804;2022-12-29T03:48:22;100087.58;;;4.21;81.89
75536;BME280;64119;52.070;20.804;2022-12-29T03:50:50;100082.02;;;4.21;81.87
75536;BME280;64119;52.070;20.804;2022-12-29T03:53:19;100081.98;;;4.19;82.42
75536;BME280;64119;52.070;20.804;2022-12-29T03:55:47;100074.23;;;4.18;82.26
75536;BME280;64119;52.070;20.804;2022-12-29T03:58:15;100064.98;;;4.20;82.05
75536;BME280;64119;52.070;20.804;2022-12-29T04:01:07;100063.56;;;4.18;82.14
75536;BME280;64119;52.070;20.804;2022-12-29T04:03:36;100055.59;;;4.19;82.17
75536;BME280;64119;52.070;20.804;2022-12-29T04:06:05;100061.37;;;4.19;82.13
75536;BME280;64119;52.070;20.804;2022-12-29T04:08:40;100070.83;;;4.21;82.21
75536;BME280;64119;52.070;20.804;2022-12-29T04:11:08;100064.90;;;4.22;82.13
75536;BME280;64119;52.070;20.804;2022-12-29T04:13:35;100081.63;;;4.23;81.94
75536;BME280;64119;52.070;20.804;2022-12-29T04:16:03;100068.46;;;4.25;81.78
75536;BME280;64119;52.070;20.804;2022-12-29T04:18:32;100071.09;;;4.25;81.65
75536;BME280;64119;52.070;20.804;2022-12-29T04:21:01;100072.87;;;4.25;81.50
75536;BME280;64119;52.070;20.804;2022-12-29T04:23:34;100066.66;;;4.27;81.45
75536;BME280;64119;52.070;20.804;2022-12-29T04:26:04;100068.85;;;4.30;80.95
75536;BME280;64119;52.070;20.804;2022-12-29T04:28:38;100071.06;;;4.30;80.92
75536;BME280;64119;52.070;20.804;2022-12-29T04:31:45;100058.94;;;4.31;80.72
75536;BME280;64119;52.070;20.804;2022-12-29T04:34:13;100057.64;;;4.31;80.66
75536;BME280;64119;52.070;20.804;2022-12-29T04:36:41;100063.65;;;4.33;80.49
75536;BME280;64119;52.070;20.804;2022-12-29T04:39:08;100057.40;;;4.32;80.40
75536;BME280;64119;52.070;20.804;2022-12-29T04:41:38;100045.50;;;4.32;80.45
75536;BME280;64119;52.070;20.804;2022-12-29T04:44:08;100043.98;;;4.31;80.29
75536;BME280;64119;52.070;20.804;2022-12-29T04:46:54;100048.09;;;4.32;80.18
75536;BME280;64119;52.070;20.804;2022-12-29T04:49:45;100042.92;;;4.30;80.02
75536;BME280;64119;52.070;20.804;2022-12-29T04:52:45;100046.34;;;4.28;80.22
75536;BME280;64119;52.070;20.804;2022-12-29T04:55:14;100035.64;;;4.31;79.88
75536;BME280;64119;52.070;20.804;2022-12-29T04:57:42;100027.21;;;4.31;79.94
75536;BME280;64119;52.070;20.804;2022-12-29T05:00:14;100026.66;;;4.30;79.70
75536;BME280;64119;52.070;20.804;2022-12-29T05:02:41;100026.96;;;4.29;79.63
75536;BME280;64119;52.070;20.804;2022-12-29T05:05:09;100021.41;;;4.28;79.67
75536;BME280;64119;52.070;20.804;2022-12-29T05:07:41;100024.23;;;4.28;79.54
75536;BME280;64119;52.070;20.804;2022-12-29T05:10:10;100022.73;;;4.29;79.26
75536;BME280;64119;52.070;20.804;2022-12-29T05:12:38;100020.87;;;4.30;79.01
75536;BME280;64119;52.070;20.804;2022-12-29T05:15:08;100010.73;;;4.30;79.21
75536;BME280;64119;52.070;20.804;2022-12-29T05:17:36;100011.41;;;4.30;79.06
75536;BME280;64119;52.070;20.804;2022-12-29T05:20:06;100013.25;;;4.29;78.93
75536;BME280;64119;52.070;20.804;2022-12-29T05:22:35;100009.73;;;4.29;78.94
75536;BME280;64119;52.070;20.804;2022-12-29T05:25:04;100004.64;;;4.31;78.63
75536;BME280;64119;52.070;20.804;2022-12-29T05:27:39;100002.00;;;4.29;78.39
75536;BME280;64119;52.070;20.804;2022-12-29T05:30:18;99991.79;;;4.28;78.29
75536;BME280;64119;52.070;20.804;2022-12-29T05:32:46;99989.61;;;4.29;78.28
75536;BME280;64119;52.070;20.804;2022-12-29T05:35:14;99981.41;;;4.29;78.45
75536;BME280;64119;52.070;20.804;2022-12-29T05:37:42;99974.20;;;4.31;78.21
75536;BME280;64119;52.070;20.804;2022-12-29T05:40:11;99972.92;;;4.30;78.13
75536;BME280;64119;52.070;20.804;2022-12-29T05:42:39;99969.19;;;4.32;77.88
75536;BME280;64119;52.070;20.804;2022-12-29T05:45:33;99978.21;;;4.34;77.72
75536;BME280;64119;52.070;20.804;2022-12-29T05:48:26;99975.20;;;4.35;77.53
75536;BME280;64119;52.070;20.804;2022-12-29T05:51:27;99980.52;;;4.37;77.32
75536;BME280;64119;52.070;20.804;2022-12-29T05:53:54;99983.40;;;4.40;76.87
75536;BME280;64119;52.070;20.804;2022-12-29T05:56:23;99977.96;;;4.43;76.53
75536;BME280;64119;52.070;20.804;2022-12-29T05:58:56;99982.34;;;4.47;76.60
75536;BME280;64119;52.070;20.804;2022-12-29T06:01:24;99980.05;;;4.48;76.48
75536;BME280;64119;52.070;20.804;2022-12-29T06:03:53;99973.29;;;4.51;75.97
75536;BME280;64119;52.070;20.804;2022-12-29T06:06:21;99972.80;;;4.56;75.84
75536;BME280;64119;52.070;20.804;2022-12-29T06:08:48;99968.96;;;4.61;75.72
75536;BME280;64119;52.070;20.804;2022-12-29T06:11:17;99977.54;;;4.62;75.42
75536;BME280;64119;52.070;20.804;2022-12-29T06:13:50;99972.16;;;4.65;75.50
75536;BME280;64119;52.070;20.804;2022-12-29T06:16:17;99978.02;;;4.68;75.54
75536;BME280;64119;52.070;20.804;2022-12-29T06:18:45;99971.98;;;4.69;75.23
75536;BME280;64119;52.070;20.804;2022-12-29T06:21:13;99973.96;;;4.72;74.95
75536;BME280;64119;52.070;20.804;2022-12-29T06:23:41;99975.54;;;4.73;75.02
75536;BME280;64119;52.070;20.804;2022-12-29T06:26:08;99979.60;;;4.74;74.86
75536;BME280;64119;52.070;20.804;2022-12-29T06:28:37;99983.77;;;4.77;74.93
75536;BME280;64119;52.070;20.804;2022-12-29T06:31:09;99989.41;;;4.79;74.70
75536;BME280;64119;52.070;20.804;2022-12-29T06:33:37;99994.86;;;4.82;74.69
75536;BME280;64119;52.070;20.804;2022-12-29T06:36:05;99993.11;;;4.84;74.29
75536;BME280;64119;52.070;20.804;2022-12-29T06:38:33;99983.55;;;4.87;74.10
75536;BME280;64119;52.070;20.804;2022-12-29T06:41:02;99980.60;;;4.88;74.10
75536;BME280;64119;52.070;20.804;2022-12-29T06:43:45;99987.00;;;4.92;73.40
75536;BME280;64119;52.070;20.804;2022-12-29T06:46:29;99993.29;;;4.96;73.64
75536;BME280;64119;52.070;20.804;2022-12-29T06:48:56;99994.05;;;5.00;73.55
75536;BME280;64119;52.070;20.804;2022-12-29T06:51:24;99999.80;;;5.00;73.51
75536;BME280;64119;52.070;20.804;2022-12-29T06:53:52;99998.95;;;5.00;73.94
75536;BME280;64119;52.070;20.804;2022-12-29T06:56:19;99988.21;;;5.00;73.90
75536;BME280;64119;52.070;20.804;2022-12-29T06:58:47;99985.09;;;5.02;73.85
75536;BME280;64119;52.070;20.804;2022-12-29T07:01:15;99983.31;;;5.03;73.79
75536;BME280;64119;52.070;20.804;2022-12-29T07:03:43;99982.27;;;5.04;73.85
75536;BME280;64119;52.070;20.804;2022-12-29T07:06:10;99977.01;;;5.03;73.93
75536;BME280;64119;52.070;20.804;2022-12-29T07:08:38;99986.30;;;5.05;74.11
75536;BME280;64119;52.070;20.804;2022-12-29T07:11:06;99989.73;;;5.06;73.94
75536;BME280;64119;52.070;20.804;2022-12-29T07:13:34;99982.63;;;5.05;73.72
75536;BME280;64119;52.070;20.804;2022-12-29T07:16:08;99979.21;;;5.08;73.53
75536;BME280;64119;52.070;20.804;2022-12-29T07:18:37;99977.38;;;5.08;73.53
75536;BME280;64119;52.070;20.804;2022-12-29T07:21:04;99976.98;;;5.12;73.50
75536;BME280;64119;52.070;20.804;2022-12-29T07:23:32;99978.27;;;5.15;73.11
75536;BME280;64119;52.070;20.804;2022-12-29T07:26:02;99973.86;;;5.16;72.86
75536;BME280;64119;52.070;20.804;2022-12-29T07:28:30;99975.91;;;5.18;73.05
75536;BME280;64119;52.070;20.804;2022-12-29T07:30:59;99970.59;;;5.21;72.87
75536;BME280;64119;52.070;20.804;2022-12-29T07:33:31;99977.55;;;5.23;72.70
75536;BME280;64119;52.070;20.804;2022-12-29T07:35:59;99979.23;;;5.27;72.95
75536;BME280;64119;52.070;20.804;2022-12-29T07:38:27;99975.89;;;5.30;72.63
75536;BME280;64119;52.070;20.804;2022-12-29T07:40:58;99975.45;;;5.34;72.65
75536;BME280;64119;52.070;20.804;2022-12-29T07:43:26;99978.68;;;5.40;72.85
75536;BME280;64119;52.070;20.804;2022-12-29T07:46:19;99987.86;;;5.45;72.18
75536;BME280;64119;52.070;20.804;2022-12-29T07:49:07;99985.39;;;5.49;71.82
75536;BME280;64119;52.070;20.804;2022-12-29T07:51:34;99985.41;;;5.53;71.95
75536;BME280;64119;52.070;20.804;2022-12-29T07:54:02;99985.61;;;5.56;71.90
75536;BME280;64119;52.070;20.804;2022-12-29T07:56:30;99977.91;;;5.58;71.43
75536;BME280;64119;52.070;20.804;2022-12-29T07:58:58;99976.51;;;5.62;71.56
75536;BME280;64119;52.070;20.804;2022-12-29T08:01:25;99964.40;;;5.63;71.18
75536;BME280;64119;52.070;20.804;2022-12-29T08:03:53;99962.02;;;5.66;70.94
75536;BME280;64119;52.070;20.804;2022-12-29T08:06:24;99959.40;;;5.69;70.50
75536;BME280;64119;52.070;20.804;2022-12-29T08:08:52;99954.02;;;5.75;70.69
75536;BME280;64119;52.070;20.804;2022-12-29T08:11:19;99960.66;;;5.78;70.90
75536;BME280;64119;52.070;20.804;2022-12-29T08:13:47;99958.76;;;5.86;70.51
75536;BME280;64119;52.070;20.804;2022-12-29T08:16:15;99955.77;;;5.91;70.24
75536;BME280;64119;52.070;20.804;2022-12-29T08:18:43;99959.39;;;5.99;70.16
75536;BME280;64119;52.070;20.804;2022-12-29T08:21:11;99955.27;;;6.06;69.78
75536;BME280;64119;52.070;20.804;2022-12-29T08:23:38;99956.28;;;6.15;69.40
75536;BME280;64119;52.070;20.804;2022-12-29T08:26:06;99952.27;;;6.20;68.90
75536;BME280;64119;52.070;20.804;2022-12-29T08:28:34;99950.32;;;6.25;69.25
75536;BME280;64119;52.070;20.804;2022-12-29T08:31:02;99952.86;;;6.29;68.95
75536;BME280;64119;52.070;20.804;2022-12-29T08:33:30;99957.59;;;6.32;69.18
75536;BME280;64119;52.070;20.804;2022-12-29T08:36:00;99959.68;;;6.39;68.83
75536;BME280;64119;52.070;20.804;2022-12-29T08:38:28;99967.54;;;6.41;68.81
75536;BME280;64119;52.070;20.804;2022-12-29T08:40:57;99970.55;;;6.43;68.91
75536;BME280;64119;52.070;20.804;2022-12-29T08:43:25;99971.13;;;6.48;68.52
75536;BME280;64119;52.070;20.804;2022-12-29T08:45:53;99970.17;;;6.50;68.61
75536;BME280;64119;52.070;20.804;2022-12-29T08:48:20;99967.10;;;6.52;68.65
75536;BME280;64119;52.070;20.804;2022-12-29T08:50:49;99972.48;;;6.57;68.55
75536;BME280;64119;52.070;20.804;2022-12-29T08:53:18;99971.89;;;6.61;68.43
75536;BME280;64119;52.070;20.804;2022-12-29T08:55:47;99969.83;;;6.65;67.95
75536;BME280;64119;52.070;20.804;2022-12-29T08:58:28;99968.43;;;6.68;67.66
75536;BME280;64119;52.070;20.804;2022-12-29T09:00:57;99973.07;;;6.69;67.67
75536;BME280;64119;52.070;20.804;2022-12-29T09:03:25;99967.04;;;6.72;67.31
75536;BME280;64119;52.070;20.804;2022-12-29T09:06:15;99965.99;;;6.75;67.46
75536;BME280;64119;52.070;20.804;2022-12-29T09:08:44;99956.36;;;6.76;67.37
75536;BME280;64119;52.070;20.804;2022-12-29T09:11:18;99962.17;;;6.79;67.32
75536;BME280;64119;52.070;20.804;2022-12-29T09:13:46;99957.54;;;6.82;67.20
75536;BME280;64119;52.070;20.804;2022-12-29T09:16:15;99959.17;;;6.86;66.79
75536;BME280;64119;52.070;20.804;2022-12-29T09:18:44;99952.04;;;6.92;66.94
75536;BME280;64119;52.070;20.804;2022-12-29T09:21:12;99952.70;;;6.97;67.03
75536;BME280;64119;52.070;20.804;2022-12-29T09:23:40;99953.77;;;7.00;67.14
75536;BME280;64119;52.070;20.804;2022-12-29T09:26:08;99960.39;;;7.00;67.02
75536;BME280;64119;52.070;20.804;2022-12-29T09:28:36;99955.19;;;7.04;66.82
75536;BME280;64119;52.070;20.804;2022-12-29T09:31:04;99952.77;;;7.05;66.87
75536;BME280;64119;52.070;20.804;2022-12-29T09:33:32;99955.27;;;7.08;66.70
75536;BME280;64119;52.070;20.804;2022-12-29T09:36:03;99951.59;;;7.11;66.78
75536;BME280;64119;52.070;20.804;2022-12-29T09:38:31;99951.48;;;7.10;66.85
75536;BME280;64119;52.070;20.804;2022-12-29T09:41:24;99955.14;;;7.11;67.02
75536;BME280;64119;52.070;20.804;2022-12-29T09:44:08;99947.21;;;7.09;67.20
75536;BME280;64119;52.070;20.804;2022-12-29T09:46:44;99945.82;;;7.11;67.18
75536;BME280;64119;52.070;20.804;2022-12-29T09:51:59;99927.67;;;7.12;66.79
75536;BME280;64119;52.070;20.804;2022-12-29T09:54:45;99929.48;;;7.13;67.10
75536;BME280;64119;52.070;20.804;2022-12-29T10:00:20;99923.51;;;7.18;67.11
75536;BME280;64119;52.070;20.804;2022-12-29T10:02:55;99920.47;;;7.21;66.74
75536;BME280;64119;52.070;20.804;2022-12-29T10:11:00;99921.85;;;7.27;66.59
75536;BME280;64119;52.070;20.804;2022-12-29T10:19:51;99914.50;;;7.51;66.21
75536;BME280;64119;52.070;20.804;2022-12-29T10:25:12;99900.05;;;7.86;65.58
75536;BME280;64119;52.070;20.804;2022-12-29T10:27:42;99896.71;;;7.98;64.52
75536;BME280;64119;52.070;20.804;2022-12-29T10:30:12;99895.27;;;8.06;64.57
75536;BME280;64119;52.070;20.804;2022-12-29T10:32:54;99894.80;;;8.11;64.61
75536;BME280;64119;52.070;20.804;2022-12-29T10:35:26;99895.98;;;8.13;64.47
75536;BME280;64119;52.070;20.804;2022-12-29T10:40:45;99888.81;;;8.16;64.50
75536;BME280;64119;52.070;20.804;2022-12-29T10:45:48;99881.85;;;8.19;64.27
75536;BME280;64119;52.070;20.804;2022-12-29T10:48:21;99881.98;;;8.18;64.43
75536;BME280;64119;52.070;20.804;2022-12-29T10:51:00;99880.83;;;8.18;64.56
75536;BME280;64119;52.070;20.804;2022-12-29T10:53:43;99875.45;;;8.17;64.06
75536;BME280;64119;52.070;20.804;2022-12-29T10:56:29;99873.35;;;8.17;63.89
75536;BME280;64119;52.070;20.804;2022-12-29T10:59:03;99875.52;;;8.15;63.94
75536;BME280;64119;52.070;20.804;2022-12-29T11:01:42;99877.54;;;8.17;64.22
75536;BME280;64119;52.070;20.804;2022-12-29T11:04:35;99884.59;;;8.20;64.14
75536;BME280;64119;52.070;20.804;2022-12-29T11:07:08;99884.97;;;8.20;64.56
75536;BME280;64119;52.070;20.804;2022-12-29T11:09:43;99881.55;;;8.20;64.32
75536;BME280;64119;52.070;20.804;2022-12-29T11:12:24;99876.67;;;8.24;63.83
75536;BME280;64119;52.070;20.804;2022-12-29T11:15:00;99874.33;;;8.23;64.09
75536;BME280;64119;52.070;20.804;2022-12-29T11:17:29;99875.05;;;8.23;64.07
75536;BME280;64119;52.070;20.804;2022-12-29T11:19:56;99876.34;;;8.25;64.28
75536;BME280;64119;52.070;20.804;2022-12-29T11:22:28;99875.78;;;8.26;64.36
75536;BME280;64119;52.070;20.804;2022-12-29T11:25:06;99880.24;;;8.31;64.06
75536;BME280;64119;52.070;20.804;2022-12-29T11:27:37;99875.15;;;8.29;64.12
75536;BME280;64119;52.070;20.804;2022-12-29T11:30:23;99874.63;;;8.32;64.53
75536;BME280;64119;52.070;20.804;2022-12-29T11:32:53;99875.96;;;8.36;64.17
75536;BME280;64119;52.070;20.804;2022-12-29T11:35:39;99880.33;;;8.37;64.39
75536;BME280;64119;52.070;20.804;2022-12-29T11:38:20;99882.44;;;8.36;64.28
75536;BME280;64119;52.070;20.804;2022-12-29T11:40:49;99877.52;;;8.39;64.34
75536;BME280;64119;52.070;20.804;2022-12-29T11:43:33;99872.16;;;8.41;64.15
75536;BME280;64119;52.070;20.804;2022-12-29T11:46:02;99869.46;;;8.43;64.12
75536;BME280;64119;52.070;20.804;2022-12-29T11:48:37;99870.40;;;8.44;64.13
75536;BME280;64119;52.070;20.804;2022-12-29T11:51:06;99869.14;;;8.48;64.35
75536;BME280;64119;52.070;20.804;2022-12-29T11:53:43;99871.60;;;8.50;64.21
75536;BME280;64119;52.070;20.804;2022-12-29T11:56:19;99875.95;;;8.52;64.02
75536;BME280;64119;52.070;20.804;2022-12-29T11:58:50;99880.52;;;8.53;63.91
75536;BME280;64119;52.070;20.804;2022-12-29T12:01:23;99871.58;;;8.54;64.28
75536;BME280;64119;52.070;20.804;2022-12-29T12:04:16;99863.86;;;8.55;64.13
75536;BME280;64119;52.070;20.804;2022-12-29T12:09:31;99856.31;;;8.65;63.65
75536;BME280;64119;52.070;20.804;2022-12-29T12:12:01;99858.95;;;8.68;63.78
75536;BME280;64119;52.070;20.804;2022-12-29T12:14:52;99858.89;;;8.71;63.65
75536;BME280;64119;52.070;20.804;2022-12-29T12:17:47;99862.95;;;8.73;63.65
75536;BME280;64119;52.070;20.804;2022-12-29T12:20:38;99864.40;;;8.78;63.68
75536;BME280;64119;52.070;20.804;2022-12-29T12:26:31;99858.49;;;8.80;63.85
75536;BME280;64119;52.070;20.804;2022-12-29T12:29:00;99860.08;;;8.80;63.86
75536;BME280;64119;52.070;20.804;2022-12-29T12:35:12;99854.98;;;8.84;64.03
75536;BME280;64119;52.070;20.804;2022-12-29T12:41:13;99846.43;;;8.87;63.91
75536;BME280;64119;52.070;20.804;2022-12-29T12:43:54;99840.70;;;8.88;64.10
75536;BME280;64119;52.070;20.804;2022-12-29T12:49:27;99829.30;;;8.92;63.81
75536;BME280;64119;52.070;20.804;2022-12-29T12:57:52;99810.08;;;8.99;63.89
75536;BME280;64119;52.070;20.804;2022-12-29T13:00:22;99818.23;;;9.00;63.61
75536;BME280;64119;52.070;20.804;2022-12-29T13:03:13;99821.80;;;9.04;63.69
75536;BME280;64119;52.070;20.804;2022-12-29T13:09:19;99829.30;;;9.06;63.83
75536;BME280;64119;52.070;20.804;2022-12-29T13:15:04;99846.15;;;9.05;64.43
75536;BME280;64119;52.070;20.804;2022-12-29T13:17:45;99850.85;;;9.07;63.94
75536;BME280;64119;52.070;20.804;2022-12-29T13:26:11;99847.59;;;9.08;64.29
75536;BME280;64119;52.070;20.804;2022-12-29T13:31:24;99846.04;;;9.07;64.31
75536;BME280;64119;52.070;20.804;2022-12-29T13:34:52;99846.58;;;9.09;64.16
75536;BME280;64119;52.070;20.804;2022-12-29T13:37:17;99843.41;;;9.09;64.41
75536;BME280;64119;52.070;20.804;2022-12-29T13:39:50;99844.25;;;9.08;64.13
75536;BME280;64119;52.070;20.804;2022-12-29T13:42:21;99845.36;;;9.09;64.07
75536;BME280;64119;52.070;20.804;2022-12-29T13:47:36;99851.64;;;9.11;64.24
75536;BME280;64119;52.070;20.804;2022-12-29T13:50:21;99838.14;;;9.07;64.28
75536;BME280;64119;52.070;20.804;2022-12-29T13:55:44;99843.55;;;9.06;64.33
75536;BME280;64119;52.070;20.804;2022-12-29T13:58:20;99852.13;;;9.05;64.44
75536;BME280;64119;52.070;20.804;2022-12-29T14:03:46;99860.46;;;9.04;64.71
75536;BME280;64119;52.070;20.804;2022-12-29T14:08:48;99855.48;;;9.01;64.82
75536;BME280;64119;52.070;20.804;2022-12-29T14:11:18;99860.47;;;9.01;64.84
75536;BME280;64119;52.070;20.804;2022-12-29T14:13:48;99865.84;;;8.99;64.96
75536;BME280;64119;52.070;20.804;2022-12-29T14:16:34;99859.93;;;8.98;65.02
75536;BME280;64119;52.070;20.804;2022-12-29T14:19:05;99857.27;;;9.01;64.74
75536;BME280;64119;52.070;20.804;2022-12-29T14:21:37;99850.90;;;8.99;64.80
75536;BME280;64119;52.070;20.804;2022-12-29T14:34:49;99846.27;;;9.01;64.96
75536;BME280;64119;52.070;20.804;2022-12-29T14:40:47;99840.30;;;9.01;64.99
75536;BME280;64119;52.070;20.804;2022-12-29T14:42:52;99849.61;;;9.06;64.81
75536;BME280;64119;52.070;20.804;2022-12-29T14:47:50;99845.52;;;9.05;65.03
75536;BME280;64119;52.070;20.804;2022-12-29T14:50:24;99846.88;;;9.05;64.84
75536;BME280;64119;52.070;20.804;2022-12-29T14:52:58;99841.77;;;9.07;64.94
75536;BME280;64119;52.070;20.804;2022-12-29T14:55:46;99847.95;;;9.05;65.02
75536;BME280;64119;52.070;20.804;2022-12-29T15:00:46;99852.23;;;9.06;64.97
75536;BME280;64119;52.070;20.804;2022-12-29T15:03:29;99851.95;;;9.07;65.02
75536;BME280;64119;52.070;20.804;2022-12-29T15:06:10;99859.25;;;9.05;65.31
75536;BME280;64119;52.070;20.804;2022-12-29T15:16:55;99861.25;;;9.10;64.92
75536;BME280;64119;52.070;20.804;2022-12-29T15:19:25;99856.20;;;9.11;65.00
75536;BME280;64119;52.070;20.804;2022-12-29T15:21:54;99847.28;;;9.10;65.11
75536;BME280;64119;52.070;20.804;2022-12-29T15:24:23;99841.58;;;9.09;65.24
75536;BME280;64119;52.070;20.804;2022-12-29T15:26:53;99844.66;;;9.08;65.11
75536;BME280;64119;52.070;20.804;2022-12-29T15:29:37;99848.29;;;9.09;65.23
75536;BME280;64119;52.070;20.804;2022-12-29T15:34:48;99851.04;;;9.11;65.18
75536;BME280;64119;52.070;20.804;2022-12-29T15:37:24;99847.56;;;9.09;65.11
75536;BME280;64119;52.070;20.804;2022-12-29T15:39:54;99841.52;;;9.08;65.14
75536;BME280;64119;52.070;20.804;2022-12-29T15:44:50;99851.06;;;9.04;65.43
75536;BME280;64119;52.070;20.804;2022-12-29T15:47:30;99852.70;;;9.00;65.57
75536;BME280;64119;52.070;20.804;2022-12-29T15:50:08;99854.85;;;8.96;65.77
75536;BME280;64119;52.070;20.804;2022-12-29T15:52:40;99855.30;;;8.94;65.74